sensor_id;sensor_type;location;lat;lon;timestamp;temperature;humidity
9006;DHT22;62284;50.702;7.140;2022-10-03T00:01:53;13.00;99.90
9006;DHT22;62284;50.702;7.140;2022-10-03T00:04:41;12.90;99.90
9006;DHT22;62284;50.702;7.140;2022-10-03T00:07:22;12.90;99.90
9006;DHT22;62284;50.702;7.140;2022-10-03T00:09:59;12.80;99.90
9006;DHT22;62284;50.702;7.140;2022-10-03T00:12:58;12.60;99.90
9006;DHT22;62284;50.702;7.140;2022-10-03T00:15:29;12.50;99.90
9006;DHT22;62284;50.702;7.140;2022-10-03T00:18:06;12.30;99.90
9006;DHT22;62284;50.702;7.140;2022-10-03T00:20:44;12.30;99.90
9006;DHT22;62284;50.702;7.140;2022-10-03T00:23:17;12.20;99.90
9006;DHT22;62284;50.702;7.140;2022-10-03T00:25:54;12.10;99.90
9006;DHT22;62284;50.702;7.140;2022-10-03T00:28:44;12.00;99.90
9006;DHT22;62284;50.702;7.140;2022-10-03T00:31:17;12.00;99.90
9006;DHT22;62284;50.702;7.140;2022-10-03T00:33:57;11.90;99.90
9006;DHT22;62284;50.702;7.140;2022-10-03T00:36:34;11.90;99.90
9006;DHT22;62284;50.702;7.140;2022-10-03T00:39:33;11.80;99.90
9006;DHT22;62284;50.702;7.140;2022-10-03T00:48:47;11.80;99.90
9006;DHT22;62284;50.702;7.140;2022-10-03T00:51:32;11.70;99.90
9006;DHT22;62284;50.702;7.140;2022-10-03T00:54:13;11.70;99.90
9006;DHT22;62284;50.702;7.140;2022-10-03T00:56:58;11.60;99.90
9006;DHT22;62284;50.702;7.140;2022-10-03T00:59:41;11.60;99.90
9006;DHT22;62284;50.702;7.140;2022-10-03T01:02:42;11.70;99.90
9006;DHT22;62284;50.702;7.140;2022-10-03T01:05:18;11.60;99.90
9006;DHT22;62284;50.702;7.140;2022-10-03T01:08:18;11.60;99.90
9006;DHT22;62284;50.702;7.140;2022-10-03T01:10:58;11.60;99.90
9006;DHT22;62284;50.702;7.140;2022-10-03T01:13:36;11.50;99.90
9006;DHT22;62284;50.702;7.140;2022-10-03T01:16:13;11.50;99.90
9006;DHT22;62284;50.702;7.140;2022-10-03T01:18:55;11.40;99.90
9006;DHT22;62284;50.702;7.140;2022-10-03T01:21:33;11.40;99.90
9006;DHT22;62284;50.702;7.140;2022-10-03T01:24:43;11.40;99.90
9006;DHT22;62284;50.702;7.140;2022-10-03T01:27:20;11.30;99.90
9006;DHT22;62284;50.702;7.140;2022-10-03T01:29:55;11.10;99.90
9006;DHT22;62284;50.702;7.140;2022-10-03T01:32:46;11.10;99.90
9006;DHT22;62284;50.702;7.140;2022-10-03T01:35:25;11.10;99.90
9006;DHT22;62284;50.702;7.140;2022-10-03T01:38:00;11.00;99.90
9006;DHT22;62284;50.702;7.140;2022-10-03T01:40:35;11.00;99.90
9006;DHT22;62284;50.702;7.140;2022-10-03T01:43:11;11.00;99.90
9006;DHT22;62284;50.702;7.140;2022-10-03T01:45:51;10.90;99.90
9006;DHT22;62284;50.702;7.140;2022-10-03T01:48:25;10.90;99.90
9006;DHT22;62284;50.702;7.140;2022-10-03T01:51:00;10.90;99.90
9006;DHT22;62284;50.702;7.140;2022-10-03T01:53:37;10.80;99.90
9006;DHT22;62284;50.702;7.140;2022-10-03T01:56:14;10.80;99.90
9006;DHT22;62284;50.702;7.140;2022-10-03T01:58:52;10.70;99.90
9006;DHT22;62284;50.702;7.140;2022-10-03T02:01:27;10.80;99.90
9006;DHT22;62284;50.702;7.140;2022-10-03T02:04:00;10.80;99.90
9006;DHT22;62284;50.702;7.140;2022-10-03T02:06:41;10.80;99.90
9006;DHT22;62284;50.702;7.140;2022-10-03T02:09:17;10.90;99.90
9006;DHT22;62284;50.702;7.140;2022-10-03T02:11:59;10.80;99.90
9006;DHT22;62284;50.702;7.140;2022-10-03T02:14:33;10.90;99.90
9006;DHT22;62284;50.702;7.140;2022-10-03T02:17:05;10.90;99.90
9006;DHT22;62284;50.702;7.140;2022-10-03T02:19:40;11.00;99.90
9006;DHT22;62284;50.702;7.140;2022-10-03T02:22:13;10.90;99.90
9006;DHT22;62284;50.702;7.140;2022-10-03T02:24:46;10.90;99.90
9006;DHT22;62284;50.702;7.140;2022-10-03T02:27:38;11.00;99.90
9006;DHT22;62284;50.702;7.140;2022-10-03T02:30:15;11.10;99.90
9006;DHT22;62284;50.702;7.140;2022-10-03T02:33:27;11.10;99.90
9006;DHT22;62284;50.702;7.140;2022-10-03T02:36:17;11.20;99.90
9006;DHT22;62284;50.702;7.140;2022-10-03T02:42:22;11.20;99.90
9006;DHT22;62284;50.702;7.140;2022-10-03T02:48:17;11.30;99.90
9006;DHT22;62284;50.702;7.140;2022-10-03T03:00:11;11.40;99.90
9006;DHT22;62284;50.702;7.140;2022-10-03T03:03:00;11.30;99.90
9006;DHT22;62284;50.702;7.140;2022-10-03T03:12:23;11.40;99.90
9006;DHT22;62284;50.702;7.140;2022-10-03T03:18:17;11.50;99.90
9006;DHT22;62284;50.702;7.140;2022-10-03T03:21:00;11.40;99.90
9006;DHT22;62284;50.702;7.140;2022-10-03T03:23:46;11.40;99.90
9006;DHT22;62284;50.702;7.140;2022-10-03T03:26:30;11.40;99.90
9006;DHT22;62284;50.702;7.140;2022-10-03T03:29:08;11.40;99.90
9006;DHT22;62284;50.702;7.140;2022-10-03T03:31:43;11.40;99.90
9006;DHT22;62284;50.702;7.140;2022-10-03T03:34:20;11.50;99.90
9006;DHT22;62284;50.702;7.140;2022-10-03T03:36:53;11.50;99.90
9006;DHT22;62284;50.702;7.140;2022-10-03T03:39:39;11.50;99.90
9006;DHT22;62284;50.702;7.140;2022-10-03T03:42:31;11.60;99.90
9006;DHT22;62284;50.702;7.140;2022-10-03T03:45:19;11.60;99.90
9006;DHT22;62284;50.702;7.140;2022-10-03T03:48:06;11.70;99.90
9006;DHT22;62284;50.702;7.140;2022-10-03T03:50:50;11.70;99.90
9006;DHT22;62284;50.702;7.140;2022-10-03T03:56:38;11.60;99.90
9006;DHT22;62284;50.702;7.140;2022-10-03T03:59:24;11.60;99.90
9006;DHT22;62284;50.702;7.140;2022-10-03T04:02:11;11.50;99.90
9006;DHT22;62284;50.702;7.140;2022-10-03T04:04:49;11.50;99.90
9006;DHT22;62284;50.702;7.140;2022-10-03T04:07:31;11.50;99.90
9006;DHT22;62284;50.702;7.140;2022-10-03T04:10:26;11.50;99.90
9006;DHT22;62284;50.702;7.140;2022-10-03T04:16:22;11.50;99.90
9006;DHT22;62284;50.702;7.140;2022-10-03T04:19:12;11.50;99.90
9006;DHT22;62284;50.702;7.140;2022-10-03T04:22:03;11.50;99.90
9006;DHT22;62284;50.702;7.140;2022-10-03T04:25:01;11.40;99.90
9006;DHT22;62284;50.702;7.140;2022-10-03T04:27:44;11.50;99.90
9006;DHT22;62284;50.702;7.140;2022-10-03T04:30:15;11.50;99.90
9006;DHT22;62284;50.702;7.140;2022-10-03T04:38:52;11.40;99.90
9006;DHT22;62284;50.702;7.140;2022-10-03T04:41:27;11.40;99.90
9006;DHT22;62284;50.702;7.140;2022-10-03T04:44:03;11.40;99.90
9006;DHT22;62284;50.702;7.140;2022-10-03T04:46:41;11.30;99.90
9006;DHT22;62284;50.702;7.140;2022-10-03T04:49:13;11.20;99.90
9006;DHT22;62284;50.702;7.140;2022-10-03T04:51:50;11.20;99.90
9006;DHT22;62284;50.702;7.140;2022-10-03T04:54:25;11.30;99.90
9006;DHT22;62284;50.702;7.140;2022-10-03T04:57:00;11.20;99.90
9006;DHT22;62284;50.702;7.140;2022-10-03T04:59:39;11.30;99.90
9006;DHT22;62284;50.702;7.140;2022-10-03T05:02:16;11.20;99.90
9006;DHT22;62284;50.702;7.140;2022-10-03T05:05:07;11.20;99.90
9006;DHT22;62284;50.702;7.140;2022-10-03T05:07:44;11.40;99.90
9006;DHT22;62284;50.702;7.140;2022-10-03T05:10:25;11.40;99.90
9006;DHT22;62284;50.702;7.140;2022-10-03T05:12:59;11.40;99.90
9006;DHT22;62284;50.702;7.140;2022-10-03T05:15:31;11.40;99.90
9006;DHT22;62284;50.702;7.140;2022-10-03T05:18:04;11.30;99.90
9006;DHT22;62284;50.702;7.140;2022-10-03T05:20:46;11.20;99.90
9006;DHT22;62284;50.702;7.140;2022-10-03T05:23:22;11.30;99.90
9006;DHT22;62284;50.702;7.140;2022-10-03T05:25:57;11.30;99.90
9006;DHT22;62284;50.702;7.140;2022-10-03T05:28:35;11.30;99.90
9006;DHT22;62284;50.702;7.140;2022-10-03T05:31:16;11.30;99.90
9006;DHT22;62284;50.702;7.140;2022-10-03T05:33:51;11.30;99.90
9006;DHT22;62284;50.702;7.140;2022-10-03T05:36:28;11.20;99.90
9006;DHT22;62284;50.702;7.140;2022-10-03T05:41:50;11.20;99.90
9006;DHT22;62284;50.702;7.140;2022-10-03T05:44:24;11.20;99.90
9006;DHT22;62284;50.702;7.140;2022-10-03T05:46:57;11.20;99.90
9006;DHT22;62284;50.702;7.140;2022-10-03T05:49:43;11.30;99.90
9006;DHT22;62284;50.702;7.140;2022-10-03T05:52:31;11.30;99.90
9006;DHT22;62284;50.702;7.140;2022-10-03T05:55:21;11.20;99.90
9006;DHT22;62284;50.702;7.140;2022-10-03T06:01:10;11.20;99.90
9006;DHT22;62284;50.702;7.140;2022-10-03T06:04:01;11.30;99.90
9006;DHT22;62284;50.702;7.140;2022-10-03T06:06:41;11.20;99.90
9006;DHT22;62284;50.702;7.140;2022-10-03T06:09:40;11.20;99.90
9006;DHT22;62284;50.702;7.140;2022-10-03T06:12:18;11.20;99.90
9006;DHT22;62284;50.702;7.140;2022-10-03T06:15:04;11.30;99.90
9006;DHT22;62284;50.702;7.140;2022-10-03T06:17:53;11.40;99.90
9006;DHT22;62284;50.702;7.140;2022-10-03T06:23:51;11.50;99.90
9006;DHT22;62284;50.702;7.140;2022-10-03T06:26:44;11.50;99.90
9006;DHT22;62284;50.702;7.140;2022-10-03T06:33:25;11.60;99.90
9006;DHT22;62284;50.702;7.140;2022-10-03T06:36:20;11.70;99.90
9006;DHT22;62284;50.702;7.140;2022-10-03T06:39:29;11.70;99.90
9006;DHT22;62284;50.702;7.140;2022-10-03T06:42:30;11.80;99.90
9006;DHT22;62284;50.702;7.140;2022-10-03T06:51:21;11.90;99.90
9006;DHT22;62284;50.702;7.140;2022-10-03T06:54:32;12.00;99.90
9006;DHT22;62284;50.702;7.140;2022-10-03T06:57:23;12.10;99.90
9006;DHT22;62284;50.702;7.140;2022-10-03T07:00:10;12.20;99.90
9006;DHT22;62284;50.702;7.140;2022-10-03T07:03:02;12.40;99.90
9006;DHT22;62284;50.702;7.140;2022-10-03T07:15:22;12.80;99.90
9006;DHT22;62284;50.702;7.140;2022-10-03T07:18:04;12.80;99.90
9006;DHT22;62284;50.702;7.140;2022-10-03T07:20:53;12.80;99.90
9006;DHT22;62284;50.702;7.140;2022-10-03T07:23:58;12.90;99.90
9006;DHT22;62284;50.702;7.140;2022-10-03T07:26:48;12.90;99.90
9006;DHT22;62284;50.702;7.140;2022-10-03T07:32:27;13.10;99.90
9006;DHT22;62284;50.702;7.140;2022-10-03T07:35:23;13.20;99.90
9006;DHT22;62284;50.702;7.140;2022-10-03T07:42:02;13.40;99.90
9006;DHT22;62284;50.702;7.140;2022-10-03T07:50:56;13.70;99.90
9006;DHT22;62284;50.702;7.140;2022-10-03T07:54:03;13.70;99.90
9006;DHT22;62284;50.702;7.140;2022-10-03T07:57:03;13.90;99.90
9006;DHT22;62284;50.702;7.140;2022-10-03T07:59:53;14.10;99.90
9006;DHT22;62284;50.702;7.140;2022-10-03T08:02:49;14.30;99.90
9006;DHT22;62284;50.702;7.140;2022-10-03T08:05:35;14.40;99.90
9006;DHT22;62284;50.702;7.140;2022-10-03T08:08:32;14.50;99.90
9006;DHT22;62284;50.702;7.140;2022-10-03T08:11:15;14.60;99.90
9006;DHT22;62284;50.702;7.140;2022-10-03T08:14:00;14.80;99.90
9006;DHT22;62284;50.702;7.140;2022-10-03T08:16:58;15.20;99.90
9006;DHT22;62284;50.702;7.140;2022-10-03T08:19:43;15.50;99.90
9006;DHT22;62284;50.702;7.140;2022-10-03T08:22:25;15.50;99.90
9006;DHT22;62284;50.702;7.140;2022-10-03T08:25:25;15.50;99.90
9006;DHT22;62284;50.702;7.140;2022-10-03T08:28:09;15.10;99.90
9006;DHT22;62284;50.702;7.140;2022-10-03T08:31:13;14.90;99.90
9006;DHT22;62284;50.702;7.140;2022-10-03T08:33:59;15.00;99.90
9006;DHT22;62284;50.702;7.140;2022-10-03T08:39:56;14.90;99.90
9006;DHT22;62284;50.702;7.140;2022-10-03T08:42:53;15.10;99.90
9006;DHT22;62284;50.702;7.140;2022-10-03T08:45:46;15.00;99.90
9006;DHT22;62284;50.702;7.140;2022-10-03T08:48:39;14.80;99.90
9006;DHT22;62284;50.702;7.140;2022-10-03T08:54:42;15.30;99.90
9006;DHT22;62284;50.702;7.140;2022-10-03T08:57:21;15.50;99.90
9006;DHT22;62284;50.702;7.140;2022-10-03T09:00:11;15.70;99.90
9006;DHT22;62284;50.702;7.140;2022-10-03T09:09:17;16.10;99.80
9006;DHT22;62284;50.702;7.140;2022-10-03T09:14:52;16.50;99.90
9006;DHT22;62284;50.702;7.140;2022-10-03T09:21:00;16.70;99.10
9006;DHT22;62284;50.702;7.140;2022-10-03T09:23:58;16.80;98.70
9006;DHT22;62284;50.702;7.140;2022-10-03T09:26:56;16.90;98.50
9006;DHT22;62284;50.702;7.140;2022-10-03T09:35:44;17.40;97.40
9006;DHT22;62284;50.702;7.140;2022-10-03T09:44:40;18.80;94.50
9006;DHT22;62284;50.702;7.140;2022-10-03T09:51:02;19.60;93.60
9006;DHT22;62284;50.702;7.140;2022-10-03T09:57:28;19.10;93.30
9006;DHT22;62284;50.702;7.140;2022-10-03T10:00:19;19.60;93.60
9006;DHT22;62284;50.702;7.140;2022-10-03T10:06:00;18.80;92.80
9006;DHT22;62284;50.702;7.140;2022-10-03T10:08:48;18.60;94.20
9006;DHT22;62284;50.702;7.140;2022-10-03T10:11:42;18.80;94.70
9006;DHT22;62284;50.702;7.140;2022-10-03T10:14:38;19.70;93.20
9006;DHT22;62284;50.702;7.140;2022-10-03T10:20:23;21.40;84.50
9006;DHT22;62284;50.702;7.140;2022-10-03T10:23:12;22.10;80.80
9006;DHT22;62284;50.702;7.140;2022-10-03T10:29:22;21.50;80.20
9006;DHT22;62284;50.702;7.140;2022-10-03T10:38:26;19.00;88.00
9006;DHT22;62284;50.702;7.140;2022-10-03T10:56:26;24.70;60.60
9006;DHT22;62284;50.702;7.140;2022-10-03T11:02:22;28.00;49.90
9006;DHT22;62284;50.702;7.140;2022-10-03T11:05:30;28.20;47.60
9006;DHT22;62284;50.702;7.140;2022-10-03T11:08:45;28.60;45.70
9006;DHT22;62284;50.702;7.140;2022-10-03T11:21:16;29.70;40.90
9006;DHT22;62284;50.702;7.140;2022-10-03T11:24:24;30.40;38.30
9006;DHT22;62284;50.702;7.140;2022-10-03T11:27:29;29.80;38.90
9006;DHT22;62284;50.702;7.140;2022-10-03T11:30:21;27.40;43.20
9006;DHT22;62284;50.702;7.140;2022-10-03T11:36:33;30.10;41.20
9006;DHT22;62284;50.702;7.140;2022-10-03T11:39:14;31.10;38.10
9006;DHT22;62284;50.702;7.140;2022-10-03T11:41:49;30.60;38.90
9006;DHT22;62284;50.702;7.140;2022-10-03T11:44:22;29.50;38.10
9006;DHT22;62284;50.702;7.140;2022-10-03T11:50:08;29.70;37.30
9006;DHT22;62284;50.702;7.140;2022-10-03T11:52:57;30.00;38.00
9006;DHT22;62284;50.702;7.140;2022-10-03T11:55:30;28.10;39.10
9006;DHT22;62284;50.702;7.140;2022-10-03T11:58:10;25.90;43.10
9006;DHT22;62284;50.702;7.140;2022-10-03T12:00:42;24.20;46.40
9006;DHT22;62284;50.702;7.140;2022-10-03T12:03:22;23.50;47.70
9006;DHT22;62284;50.702;7.140;2022-10-03T12:05:55;23.20;47.60
9006;DHT22;62284;50.702;7.140;2022-10-03T12:08:52;24.20;48.70
9006;DHT22;62284;50.702;7.140;2022-10-03T12:11:24;25.50;47.20
9006;DHT22;62284;50.702;7.140;2022-10-03T12:14:17;25.20;46.10
9006;DHT22;62284;50.702;7.140;2022-10-03T12:17:02;25.40;46.90
9006;DHT22;62284;50.702;7.140;2022-10-03T12:19:36;25.50;47.80
9006;DHT22;62284;50.702;7.140;2022-10-03T12:22:12;25.20;47.20
9006;DHT22;62284;50.702;7.140;2022-10-03T12:24:45;26.30;46.60
9006;DHT22;62284;50.702;7.140;2022-10-03T12:27:19;26.40;45.60
9006;DHT22;62284;50.702;7.140;2022-10-03T12:29:54;26.60;44.80
9006;DHT22;62284;50.702;7.140;2022-10-03T12:32:33;25.70;46.20
9006;DHT22;62284;50.702;7.140;2022-10-03T12:35:15;24.70;47.70
9006;DHT22;62284;50.702;7.140;2022-10-03T12:37:56;24.10;47.90
9006;DHT22;62284;50.702;7.140;2022-10-03T12:40:30;22.90;48.80
9006;DHT22;62284;50.702;7.140;2022-10-03T12:43:10;22.30;50.40
9006;DHT22;62284;50.702;7.140;2022-10-03T12:45:47;21.80;51.30
9006;DHT22;62284;50.702;7.140;2022-10-03T12:48:32;21.70;51.60
9006;DHT22;62284;50.702;7.140;2022-10-03T12:51:04;22.80;51.90
9006;DHT22;62284;50.702;7.140;2022-10-03T12:53:39;24.70;49.70
9006;DHT22;62284;50.702;7.140;2022-10-03T12:56:29;26.70;45.00
9006;DHT22;62284;50.702;7.140;2022-10-03T12:59:10;26.80;44.70
9006;DHT22;62284;50.702;7.140;2022-10-03T13:04:39;29.20;40.60
9006;DHT22;62284;50.702;7.140;2022-10-03T13:07:16;29.20;39.30
9006;DHT22;62284;50.702;7.140;2022-10-03T13:10:00;29.70;38.80
9006;DHT22;62284;50.702;7.140;2022-10-03T13:12:39;29.60;38.10
9006;DHT22;62284;50.702;7.140;2022-10-03T13:15:38;31.20;37.40
9006;DHT22;62284;50.702;7.140;2022-10-03T13:18:17;31.80;35.30
9006;DHT22;62284;50.702;7.140;2022-10-03T13:20:52;30.70;37.50
9006;DHT22;62284;50.702;7.140;2022-10-03T13:23:23;28.60;38.80
9006;DHT22;62284;50.702;7.140;2022-10-03T13:26:02;25.90;42.20
9006;DHT22;62284;50.702;7.140;2022-10-03T13:28:45;24.40;45.50
9006;DHT22;62284;50.702;7.140;2022-10-03T13:31:21;23.50;47.90
9006;DHT22;62284;50.702;7.140;2022-10-03T13:33:56;22.80;48.00
9006;DHT22;62284;50.702;7.140;2022-10-03T13:36:29;22.80;49.40
9006;DHT22;62284;50.702;7.140;2022-10-03T13:39:05;24.00;47.90
9006;DHT22;62284;50.702;7.140;2022-10-03T13:41:55;23.50;46.80
9006;DHT22;62284;50.702;7.140;2022-10-03T13:44:36;22.80;49.10
9006;DHT22;62284;50.702;7.140;2022-10-03T13:47:15;22.00;50.70
9006;DHT22;62284;50.702;7.140;2022-10-03T13:49:51;21.50;51.50
9006;DHT22;62284;50.702;7.140;2022-10-03T13:52:24;21.10;52.80
9006;DHT22;62284;50.702;7.140;2022-10-03T13:55:09;21.20;54.00
9006;DHT22;62284;50.702;7.140;2022-10-03T13:57:45;21.70;53.30
9006;DHT22;62284;50.702;7.140;2022-10-03T14:00:20;21.40;52.40
9006;DHT22;62284;50.702;7.140;2022-10-03T14:02:59;21.10;52.90
9006;DHT22;62284;50.702;7.140;2022-10-03T14:05:54;20.80;54.40
9006;DHT22;62284;50.702;7.140;2022-10-03T14:08:44;21.70;52.50
9006;DHT22;62284;50.702;7.140;2022-10-03T14:11:22;22.80;51.60
9006;DHT22;62284;50.702;7.140;2022-10-03T14:14:12;24.20;49.00
9006;DHT22;62284;50.702;7.140;2022-10-03T14:16:48;24.70;47.20
9006;DHT22;62284;50.702;7.140;2022-10-03T14:19:26;25.50;46.70
9006;DHT22;62284;50.702;7.140;2022-10-03T14:22:10;26.70;43.80
9006;DHT22;62284;50.702;7.140;2022-10-03T14:24:56;27.40;43.80
9006;DHT22;62284;50.702;7.140;2022-10-03T14:27:43;27.60;44.00
9006;DHT22;62284;50.702;7.140;2022-10-03T14:30:15;27.60;41.50
9006;DHT22;62284;50.702;7.140;2022-10-03T14:33:05;28.20;39.70
9006;DHT22;62284;50.702;7.140;2022-10-03T14:35:41;28.90;38.80
9006;DHT22;62284;50.702;7.140;2022-10-03T14:38:21;28.40;38.50
9006;DHT22;62284;50.702;7.140;2022-10-03T14:41:18;27.30;40.50
9006;DHT22;62284;50.702;7.140;2022-10-03T14:43:48;25.30;43.30
9006;DHT22;62284;50.702;7.140;2022-10-03T14:46:18;24.00;46.70
9006;DHT22;62284;50.702;7.140;2022-10-03T14:48:50;23.60;48.80
9006;DHT22;62284;50.702;7.140;2022-10-03T14:51:21;24.20;48.30
9006;DHT22;62284;50.702;7.140;2022-10-03T14:53:52;26.00;45.40
9006;DHT22;62284;50.702;7.140;2022-10-03T14:56:22;26.80;44.00
9006;DHT22;62284;50.702;7.140;2022-10-03T14:58:52;27.30;43.10
9006;DHT22;62284;50.702;7.140;2022-10-03T15:01:21;27.70;41.30
9006;DHT22;62284;50.702;7.140;2022-10-03T15:03:57;27.30;42.20
9006;DHT22;62284;50.702;7.140;2022-10-03T15:06:48;26.40;42.60
9006;DHT22;62284;50.702;7.140;2022-10-03T15:09:24;25.10;45.50
9006;DHT22;62284;50.702;7.140;2022-10-03T15:11:54;24.30;47.50
9006;DHT22;62284;50.702;7.140;2022-10-03T15:14:25;24.20;48.70
9006;DHT22;62284;50.702;7.140;2022-10-03T15:16:54;24.30;48.20
9006;DHT22;62284;50.702;7.140;2022-10-03T15:19:27;23.90;49.50
9006;DHT22;62284;50.702;7.140;2022-10-03T15:22:04;23.90;48.90
9006;DHT22;62284;50.702;7.140;2022-10-03T15:24:39;23.60;50.50
9006;DHT22;62284;50.702;7.140;2022-10-03T15:27:13;23.30;50.10
9006;DHT22;62284;50.702;7.140;2022-10-03T15:29:45;23.10;50.50
9006;DHT22;62284;50.702;7.140;2022-10-03T15:32:20;22.40;52.20
9006;DHT22;62284;50.702;7.140;2022-10-03T15:34:56;22.50;52.00
9006;DHT22;62284;50.702;7.140;2022-10-03T15:37:27;22.40;51.70
9006;DHT22;62284;50.702;7.140;2022-10-03T15:40:00;22.20;52.50
9006;DHT22;62284;50.702;7.140;2022-10-03T15:42:29;22.00;53.40
9006;DHT22;62284;50.702;7.140;2022-10-03T15:45:00;22.00;53.20
9006;DHT22;62284;50.702;7.140;2022-10-03T15:47:29;22.10;52.90
9006;DHT22;62284;50.702;7.140;2022-10-03T15:50:00;21.80;54.10
9006;DHT22;62284;50.702;7.140;2022-10-03T15:52:33;21.70;54.10
9006;DHT22;62284;50.702;7.140;2022-10-03T15:55:04;21.50;54.40
9006;DHT22;62284;50.702;7.140;2022-10-03T15:57:34;21.20;54.80
9006;DHT22;62284;50.702;7.140;2022-10-03T16:00:05;21.00;55.60
9006;DHT22;62284;50.702;7.140;2022-10-03T16:02:36;20.90;57.10
9006;DHT22;62284;50.702;7.140;2022-10-03T16:05:12;21.00;56.80
9006;DHT22;62284;50.702;7.140;2022-10-03T16:07:53;20.90;56.30
9006;DHT22;62284;50.702;7.140;2022-10-03T16:10:24;20.80;56.00
9006;DHT22;62284;50.702;7.140;2022-10-03T16:13:04;20.50;56.80
9006;DHT22;62284;50.702;7.140;2022-10-03T16:15:47;20.40;57.80
9006;DHT22;62284;50.702;7.140;2022-10-03T16:18:45;20.30;57.90
9006;DHT22;62284;50.702;7.140;2022-10-03T16:24:13;20.00;58.30
9006;DHT22;62284;50.702;7.140;2022-10-03T16:26:49;19.50;58.20
9006;DHT22;62284;50.702;7.140;2022-10-03T16:29:19;19.20;59.30
9006;DHT22;62284;50.702;7.140;2022-10-03T16:31:51;18.90;59.50
9006;DHT22;62284;50.702;7.140;2022-10-03T16:34:22;18.90;63.30
9006;DHT22;62284;50.702;7.140;2022-10-03T16:36:53;18.90;66.50
9006;DHT22;62284;50.702;7.140;2022-10-03T16:39:23;18.70;70.80
9006;DHT22;62284;50.702;7.140;2022-10-03T16:41:52;18.60;71.90
9006;DHT22;62284;50.702;7.140;2022-10-03T16:44:23;18.50;75.30
9006;DHT22;62284;50.702;7.140;2022-10-03T16:46:52;18.30;79.90
9006;DHT22;62284;50.702;7.140;2022-10-03T16:49:35;18.20;82.20
9006;DHT22;62284;50.702;7.140;2022-10-03T16:52:28;18.10;85.10
9006;DHT22;62284;50.702;7.140;2022-10-03T16:54:58;17.70;87.80
9006;DHT22;62284;50.702;7.140;2022-10-03T16:57:31;17.60;89.90
9006;DHT22;62284;50.702;7.140;2022-10-03T17:00:03;17.60;90.30
9006;DHT22;62284;50.702;7.140;2022-10-03T17:02:35;17.40;91.30
9006;DHT22;62284;50.702;7.140;2022-10-03T17:05:05;17.40;92.20
9006;DHT22;62284;50.702;7.140;2022-10-03T17:07:38;17.20;93.00
9006;DHT22;62284;50.702;7.140;2022-10-03T17:13:09;17.00;95.10
9006;DHT22;62284;50.702;7.140;2022-10-03T17:15:44;16.80;95.50
9006;DHT22;62284;50.702;7.140;2022-10-03T17:18:19;16.60;96.10
9006;DHT22;62284;50.702;7.140;2022-10-03T17:20:51;16.60;96.50
9006;DHT22;62284;50.702;7.140;2022-10-03T17:23:28;16.40;96.80
9006;DHT22;62284;50.702;7.140;2022-10-03T17:26:01;16.40;96.70
9006;DHT22;62284;50.702;7.140;2022-10-03T17:28:40;16.20;96.70
9006;DHT22;62284;50.702;7.140;2022-10-03T17:31:27;16.20;96.80
9006;DHT22;62284;50.702;7.140;2022-10-03T17:34:03;16.00;97.50
9006;DHT22;62284;50.702;7.140;2022-10-03T17:36:50;15.80;97.80
9006;DHT22;62284;50.702;7.140;2022-10-03T17:39:36;15.80;98.00
9006;DHT22;62284;50.702;7.140;2022-10-03T17:42:11;15.80;98.00
9006;DHT22;62284;50.702;7.140;2022-10-03T17:44:49;15.70;98.30
9006;DHT22;62284;50.702;7.140;2022-10-03T17:47:23;15.60;98.80
9006;DHT22;62284;50.702;7.140;2022-10-03T17:49:57;15.60;99.60
9006;DHT22;62284;50.702;7.140;2022-10-03T17:52:27;15.60;99.70
9006;DHT22;62284;50.702;7.140;2022-10-03T17:54:58;15.50;99.90
9006;DHT22;62284;50.702;7.140;2022-10-03T17:57:29;15.50;99.30
9006;DHT22;62284;50.702;7.140;2022-10-03T18:00:01;15.50;99.40
9006;DHT22;62284;50.702;7.140;2022-10-03T18:02:38;15.40;99.90
9006;DHT22;62284;50.702;7.140;2022-10-03T18:05:12;15.40;99.80
9006;DHT22;62284;50.702;7.140;2022-10-03T18:07:43;15.40;99.70
9006;DHT22;62284;50.702;7.140;2022-10-03T18:10:24;15.40;99.90
9006;DHT22;62284;50.702;7.140;2022-10-03T18:12:55;15.40;99.70
9006;DHT22;62284;50.702;7.140;2022-10-03T18:18:46;15.20;99.90
9006;DHT22;62284;50.702;7.140;2022-10-03T18:21:18;15.10;99.90
9006;DHT22;62284;50.702;7.140;2022-10-03T18:24:05;15.10;99.90
9006;DHT22;62284;50.702;7.140;2022-10-03T18:26:40;15.20;99.80
9006;DHT22;62284;50.702;7.140;2022-10-03T18:29:26;15.20;99.80
9006;DHT22;62284;50.702;7.140;2022-10-03T18:31:57;15.10;99.90
9006;DHT22;62284;50.702;7.140;2022-10-03T18:34:29;15.10;99.80
9006;DHT22;62284;50.702;7.140;2022-10-03T18:37:01;15.10;99.90
9006;DHT22;62284;50.702;7.140;2022-10-03T18:39:30;15.00;99.90
9006;DHT22;62284;50.702;7.140;2022-10-03T18:42:02;14.90;99.90
9006;DHT22;62284;50.702;7.140;2022-10-03T18:44:36;14.90;99.90
9006;DHT22;62284;50.702;7.140;2022-10-03T18:47:11;14.90;99.90
9006;DHT22;62284;50.702;7.140;2022-10-03T18:49:45;14.80;99.90
9006;DHT22;62284;50.702;7.140;2022-10-03T18:52:19;14.80;99.90
9006;DHT22;62284;50.702;7.140;2022-10-03T18:54:54;14.90;99.90
9006;DHT22;62284;50.702;7.140;2022-10-03T18:57:30;14.90;99.90
9006;DHT22;62284;50.702;7.140;2022-10-03T19:00:03;14.80;99.90
9006;DHT22;62284;50.702;7.140;2022-10-03T19:02:35;14.70;99.90
9006;DHT22;62284;50.702;7.140;2022-10-03T19:05:08;14.80;99.90
9006;DHT22;62284;50.702;7.140;2022-10-03T19:07:43;14.80;99.90
9006;DHT22;62284;50.702;7.140;2022-10-03T19:10:27;14.90;99.90
9006;DHT22;62284;50.702;7.140;2022-10-03T19:13:03;14.80;99.90
9006;DHT22;62284;50.702;7.140;2022-10-03T19:15:46;14.70;99.90
9006;DHT22;62284;50.702;7.140;2022-10-03T19:18:22;14.80;99.90
9006;DHT22;62284;50.702;7.140;2022-10-03T19:20:54;14.70;99.90
9006;DHT22;62284;50.702;7.140;2022-10-03T19:23:24;14.70;99.90
9006;DHT22;62284;50.702;7.140;2022-10-03T19:25:53;14.60;99.90
9006;DHT22;62284;50.702;7.140;2022-10-03T19:28:26;14.50;99.90
9006;DHT22;62284;50.702;7.140;2022-10-03T19:30:58;14.50;99.90
9006;DHT22;62284;50.702;7.140;2022-10-03T19:33:29;14.60;99.90
9006;DHT22;62284;50.702;7.140;2022-10-03T19:36:00;14.60;99.90
9006;DHT22;62284;50.702;7.140;2022-10-03T19:38:32;14.50;99.90
9006;DHT22;62284;50.702;7.140;2022-10-03T19:41:03;14.50;99.90
9006;DHT22;62284;50.702;7.140;2022-10-03T19:43:42;14.40;99.90
9006;DHT22;62284;50.702;7.140;2022-10-03T19:46:50;14.40;99.90
9006;DHT22;62284;50.702;7.140;2022-10-03T19:49:28;14.20;99.90
9006;DHT22;62284;50.702;7.140;2022-10-03T19:52:14;14.00;99.90
9006;DHT22;62284;50.702;7.140;2022-10-03T19:54:48;14.00;99.90
9006;DHT22;62284;50.702;7.140;2022-10-03T19:57:18;13.90;99.90
9006;DHT22;62284;50.702;7.140;2022-10-03T19:59:50;13.80;99.90
9006;DHT22;62284;50.702;7.140;2022-10-03T20:02:21;13.70;99.90
9006;DHT22;62284;50.702;7.140;2022-10-03T20:04:50;13.60;99.90
9006;DHT22;62284;50.702;7.140;2022-10-03T20:07:37;13.60;99.90
9006;DHT22;62284;50.702;7.140;2022-10-03T20:13:03;13.50;99.90
9006;DHT22;62284;50.702;7.140;2022-10-03T20:18:04;13.50;99.90
9006;DHT22;62284;50.702;7.140;2022-10-03T20:20:32;13.50;99.90
9006;DHT22;62284;50.702;7.140;2022-10-03T20:23:03;13.60;99.90